createdAt,value
2019-01-21T00:00:52.067Z,57.50
2019-01-21T00:03:20.834Z,57.70
2019-01-21T00:05:49.670Z,57.50
2019-01-21T00:08:18.581Z,57.60
2019-01-21T00:10:47.644Z,57.60
2019-01-21T00:13:18.077Z,57.40
2019-01-21T00:15:47.054Z,57.30
2019-01-21T00:18:16.449Z,58.30
2019-01-21T00:20:45.468Z,57.50
2019-01-21T00:23:16.160Z,58.10
2019-01-21T00:25:44.896Z,59.00
2019-01-21T00:28:13.972Z,59.60
2019-01-21T00:30:42.787Z,59.80
2019-01-21T00:33:11.823Z,59.70
2019-01-21T00:35:40.857Z,59.30
2019-01-21T00:38:09.683Z,58.80
2019-01-21T00:40:38.767Z,58.60
2019-01-21T00:43:09.576Z,58.10
2019-01-21T00:45:38.363Z,58.00
2019-01-21T00:48:07.089Z,58.40
2019-01-21T00:50:35.956Z,58.40
2019-01-21T00:53:04.981Z,58.10
2019-01-21T00:55:34.032Z,57.90
2019-01-21T00:58:02.873Z,57.80
2019-01-21T01:00:31.665Z,58.00
2019-01-21T01:03:00.519Z,57.60
2019-01-21T01:05:29.333Z,57.60
2019-01-21T01:07:58.072Z,57.40
2019-01-21T01:10:28.527Z,57.60
2019-01-21T01:12:57.295Z,57.90
2019-01-21T01:15:26.187Z,57.80
2019-01-21T01:17:54.932Z,57.40
2019-01-21T01:20:24.044Z,57.40
2019-01-21T01:22:52.804Z,57.40
2019-01-21T01:25:21.586Z,57.20
2019-01-21T01:27:50.309Z,58.60
2019-01-21T01:30:19.363Z,56.90
2019-01-21T01:32:51.653Z,56.80
2019-01-21T01:35:20.495Z,56.70
2019-01-21T01:37:49.323Z,56.50
2019-01-21T01:40:18.863Z,57.20
2019-01-21T01:42:47.611Z,57.10
2019-01-21T01:45:20.067Z,57.10
2019-01-21T01:47:50.681Z,56.90
2019-01-21T01:50:19.391Z,57.10
2019-01-21T01:52:48.175Z,57.40
2019-01-21T01:55:17.256Z,57.30
2019-01-21T01:57:46.182Z,57.50
2019-01-21T02:00:15.893Z,57.30
2019-01-21T02:02:44.898Z,57.60
2019-01-21T02:05:14.177Z,57.70
2019-01-21T02:07:42.958Z,58.00
2019-01-21T02:10:13.333Z,57.50
2019-01-21T02:12:42.147Z,57.20
2019-01-21T02:15:13.061Z,56.80
2019-01-21T02:17:42.271Z,57.20
2019-01-21T02:20:14.100Z,56.90
2019-01-21T02:22:44.642Z,56.70
2019-01-21T02:25:14.094Z,57.80
2019-01-21T02:27:54.636Z,58.20
2019-01-21T02:30:31.910Z,58.10
2019-01-21T02:33:09.568Z,57.70
2019-01-21T02:35:41.238Z,57.40
2019-01-21T02:38:19.054Z,57.70
2019-01-21T02:41:02.725Z,57.40
2019-01-21T02:43:37.224Z,57.40
2019-01-21T02:46:12.427Z,57.00
2019-01-21T02:49:03.554Z,57.00
2019-01-21T02:51:50.262Z,56.90
2019-01-21T02:54:30.652Z,56.40
2019-01-21T02:57:17.469Z,57.40
2019-01-21T02:59:54.399Z,56.50
2019-01-21T03:02:35.103Z,56.60
2019-01-21T03:05:34.027Z,57.10
2019-01-21T03:08:28.188Z,56.90
2019-01-21T03:11:24.083Z,56.80
2019-01-21T03:14:10.872Z,56.70
2019-01-21T03:16:54.390Z,57.10
2019-01-21T03:19:38.116Z,56.70
2019-01-21T03:22:18.928Z,57.50
2019-01-21T03:24:50.630Z,57.40
2019-01-21T03:27:33.939Z,57.20
2019-01-21T03:30:15.022Z,57.00
2019-01-21T03:33:08.582Z,57.20
2019-01-21T03:35:46.393Z,57.10
2019-01-21T03:38:25.057Z,57.90
2019-01-21T03:40:59.997Z,57.80
2019-01-21T03:43:57.408Z,58.20
2019-01-21T03:46:35.183Z,58.70
2019-01-21T03:49:07.227Z,57.40
2019-01-21T03:51:53.268Z,57.30
2019-01-21T03:54:23.368Z,57.00
2019-01-21T03:56:55.379Z,57.50
2019-01-21T03:59:39.720Z,57.60
2019-01-21T04:02:23.627Z,57.40
2019-01-21T04:05:19.696Z,57.30
2019-01-21T04:08:00.407Z,57.40
2019-01-21T04:10:49.835Z,57.30
2019-01-21T04:13:42.985Z,57.00
2019-01-21T04:16:23.427Z,57.10
2019-01-21T04:19:14.762Z,57.50
2019-01-21T04:21:52.155Z,57.50
2019-01-21T04:24:35.788Z,57.50
2019-01-21T04:27:19.690Z,56.80
2019-01-21T04:29:53.997Z,57.50
2019-01-21T04:32:34.758Z,56.70
2019-01-21T04:35:12.286Z,56.40
2019-01-21T04:37:46.734Z,57.00
2019-01-21T04:40:30.767Z,56.00
2019-01-21T04:43:11.145Z,56.00
2019-01-21T04:45:45.759Z,56.40
2019-01-21T04:48:33.751Z,56.50
2019-01-21T04:51:26.959Z,56.50
2019-01-21T04:54:14.130Z,56.40
2019-01-21T04:56:58.046Z,57.00
2019-01-21T04:59:46.201Z,56.60
2019-01-21T05:02:26.811Z,56.40
2019-01-21T05:05:16.027Z,56.80
2019-01-21T05:07:53.464Z,56.30
2019-01-21T05:10:39.892Z,56.60
2019-01-21T05:13:33.948Z,56.60
2019-01-21T05:16:14.571Z,57.20
2019-01-21T05:19:02.688Z,56.90
2019-01-21T05:21:46.625Z,56.70
2019-01-21T05:24:30.396Z,56.70
2019-01-21T05:27:07.571Z,56.90
2019-01-21T05:29:49.438Z,57.10
2019-01-21T05:32:36.760Z,56.90
2019-01-21T05:35:11.303Z,56.40
2019-01-21T05:38:10.296Z,56.40
2019-01-21T05:40:50.882Z,56.40
2019-01-21T05:43:22.583Z,56.70
2019-01-21T05:45:59.066Z,57.10
2019-01-21T05:48:56.661Z,56.70
2019-01-21T05:51:46.282Z,57.00
2019-01-21T05:54:21.036Z,56.40
2019-01-21T05:57:07.885Z,56.60
2019-01-21T06:00:12.590Z,56.50
2019-01-21T06:03:15.897Z,56.60
2019-01-21T06:05:50.484Z,56.50
2019-01-21T06:08:32.999Z,56.50
2019-01-21T06:11:13.546Z,56.40
2019-01-21T06:13:51.280Z,56.30
2019-01-21T06:16:38.640Z,56.00
2019-01-21T06:19:26.707Z,56.30
2019-01-21T06:22:14.093Z,56.40
2019-01-21T06:25:10.632Z,56.00
2019-01-21T06:28:02.113Z,56.80
2019-01-21T06:30:34.689Z,56.40
2019-01-21T06:33:16.492Z,56.60
2019-01-21T06:35:48.537Z,56.80
2019-01-21T06:38:39.354Z,55.90
2019-01-21T06:41:11.270Z,56.00
2019-01-21T06:44:06.056Z,55.70
2019-01-21T06:46:43.525Z,55.80
2019-01-21T06:49:18.611Z,55.80
2019-01-21T06:52:10.105Z,56.50
2019-01-21T06:54:59.542Z,56.20
2019-01-21T06:57:41.126Z,56.10
2019-01-21T07:00:25.781Z,56.00
2019-01-21T07:03:03.446Z,54.10
2019-01-21T07:05:49.161Z,55.80
2019-01-21T07:08:50.938Z,55.80
2019-01-21T07:11:34.503Z,55.70
2019-01-21T07:14:29.921Z,55.90
2019-01-21T07:17:16.575Z,55.70
2019-01-21T07:20:16.588Z,55.40
2019-01-21T07:22:51.034Z,55.40
2019-01-21T07:25:38.934Z,55.70
2019-01-21T07:28:26.624Z,55.90
2019-01-21T07:31:02.891Z,55.80
2019-01-21T07:33:50.010Z,56.20
2019-01-21T07:36:26.551Z,56.20
2019-01-21T07:39:01.940Z,56.40
2019-01-21T07:41:49.811Z,56.50
2019-01-21T07:44:48.632Z,56.50
2019-01-21T07:47:25.024Z,56.40
2019-01-21T07:50:15.021Z,56.20
2019-01-21T07:53:05.721Z,55.90
2019-01-21T07:55:57.074Z,56.10
2019-01-21T07:59:01.861Z,56.10
2019-01-21T08:01:57.766Z,56.10
2019-01-21T08:05:01.590Z,56.10
2019-01-21T08:07:41.043Z,55.60
2019-01-21T08:10:34.675Z,56.10
2019-01-21T08:13:23.884Z,56.20
2019-01-21T08:15:56.008Z,56.40
2019-01-21T08:18:49.866Z,56.60
2019-01-21T08:21:30.963Z,57.00
2019-01-21T08:24:23.539Z,57.30
2019-01-21T08:27:21.821Z,57.40
2019-01-21T08:29:57.984Z,57.20
2019-01-21T08:32:40.971Z,56.70
2019-01-21T08:35:48.465Z,56.40
2019-01-21T08:38:02.816Z,56.80
2019-01-21T08:40:50.701Z,56.70
2019-01-21T08:43:43.523Z,56.60
2019-01-21T08:46:37.327Z,56.50
2019-01-21T08:49:42.666Z,56.50
2019-01-21T08:52:15.225Z,56.60
2019-01-21T08:55:04.512Z,57.00
2019-01-21T08:57:56.187Z,57.20
2019-01-21T09:00:39.539Z,57.30
2019-01-21T09:03:16.458Z,57.40
2019-01-21T09:06:16.651Z,57.60
2019-01-21T09:08:58.257Z,57.60
2019-01-21T09:11:49.321Z,58.00
2019-01-21T09:14:32.608Z,58.00
2019-01-21T09:17:16.887Z,58.00
2019-01-21T09:20:23.886Z,58.40
2019-01-21T09:23:16.680Z,58.60
2019-01-21T09:25:55.774Z,58.40
2019-01-21T09:28:35.999Z,58.70
2019-01-21T09:31:44.088Z,58.50
2019-01-21T09:34:32.755Z,58.50
2019-01-21T09:37:21.541Z,58.70
2019-01-21T09:40:03.465Z,58.80
2019-01-21T09:42:42.498Z,59.10
2019-01-21T09:45:39.019Z,59.10
2019-01-21T09:48:06.331Z,61.20
2019-01-21T09:50:38.116Z,63.80
2019-01-21T09:53:10.627Z,65.70
2019-01-21T09:55:50.199Z,65.80
2019-01-21T09:58:28.405Z,64.20
2019-01-21T10:01:04.835Z,62.70
2019-01-21T10:03:39.602Z,63.10
2019-01-21T10:06:23.281Z,62.80
2019-01-21T10:09:06.473Z,62.90
2019-01-21T10:11:53.831Z,62.30
2019-01-21T10:14:54.594Z,62.10
2019-01-21T10:17:50.644Z,61.90
2019-01-21T10:20:38.584Z,61.60
2019-01-21T10:23:27.647Z,62.60
2019-01-21T10:26:21.014Z,68.00
2019-01-21T10:29:03.921Z,69.50
2019-01-21T10:31:46.615Z,68.70
2019-01-21T10:34:56.634Z,69.30
2019-01-21T10:38:13.281Z,71.90
2019-01-21T10:40:52.252Z,72.30
2019-01-21T10:43:36.515Z,69.20
2019-01-21T10:46:34.090Z,67.00
2019-01-21T10:49:24.483Z,67.40
2019-01-21T10:52:26.093Z,68.60
2019-01-21T10:55:11.556Z,68.20
2019-01-21T10:58:01.227Z,68.20
2019-01-21T11:00:52.711Z,66.80
2019-01-21T11:03:26.288Z,62.60
2019-01-21T11:06:20.589Z,62.80
2019-01-21T11:09:30.513Z,62.60
2019-01-21T11:11:54.036Z,62.20
2019-01-21T11:14:28.668Z,63.80
2019-01-21T11:17:02.438Z,64.30
2019-01-21T11:20:07.627Z,62.70
2019-01-21T11:22:45.357Z,61.90
2019-01-21T11:25:20.704Z,61.90
2019-01-21T11:28:08.568Z,61.60
2019-01-21T11:30:57.889Z,61.60
2019-01-21T11:33:37.357Z,61.70
2019-01-21T11:36:27.281Z,59.90
2019-01-21T11:39:09.355Z,58.70
2019-01-21T11:42:05.699Z,59.80
2019-01-21T11:45:19.860Z,59.40
2019-01-21T11:48:05.694Z,57.50
2019-01-21T11:51:01.754Z,57.40
2019-01-21T11:53:49.970Z,55.80
2019-01-21T11:56:26.832Z,57.20
2019-01-21T11:59:09.782Z,56.40
2019-01-21T12:02:05.573Z,54.30
2019-01-21T12:05:23.201Z,54.10
2019-01-21T12:07:53.319Z,51.80
2019-01-21T12:10:57.171Z,50.00
2019-01-21T12:13:42.325Z,48.80
2019-01-21T12:16:35.620Z,48.10
2019-01-21T12:19:44.933Z,47.70
2019-01-21T12:22:25.188Z,47.70
2019-01-21T12:24:58.912Z,46.50
2019-01-21T12:27:40.989Z,45.90
2019-01-21T12:30:28.994Z,46.50
2019-01-21T12:33:09.362Z,47.00
2019-01-21T12:35:44.322Z,46.30
2019-01-21T12:38:39.905Z,46.50
2019-01-21T12:41:22.623Z,46.20
2019-01-21T12:44:29.165Z,46.70
2019-01-21T12:47:14.716Z,46.80
2019-01-21T12:49:50.383Z,48.40
2019-01-21T12:52:28.558Z,47.00
2019-01-21T12:55:08.873Z,47.00
2019-01-21T12:57:49.936Z,47.50
2019-01-21T13:00:33.515Z,47.70
2019-01-21T13:03:15.769Z,48.20
2019-01-21T13:06:20.773Z,47.70
2019-01-21T13:09:05.017Z,47.70
2019-01-21T13:11:48.038Z,46.70
2019-01-21T13:14:45.319Z,47.20
2019-01-21T13:17:17.667Z,47.10
2019-01-21T13:19:58.025Z,47.10
2019-01-21T13:22:40.101Z,47.40
2019-01-21T13:25:40.647Z,47.20
2019-01-21T13:28:31.808Z,46.60
2019-01-21T13:31:29.932Z,46.20
2019-01-21T13:34:25.459Z,46.80
2019-01-21T13:37:14.884Z,46.60
2019-01-21T13:40:01.258Z,46.60
2019-01-21T13:42:42.585Z,47.00
2019-01-21T13:45:22.260Z,46.10
2019-01-21T13:47:57.556Z,45.90
2019-01-21T13:50:42.835Z,45.90
2019-01-21T13:53:38.539Z,45.00
2019-01-21T13:56:19.070Z,45.60
2019-01-21T13:59:03.355Z,45.20
2019-01-21T14:01:41.874Z,44.20
2019-01-21T14:04:35.841Z,45.00
2019-01-21T14:07:25.503Z,44.70
2019-01-21T14:10:13.356Z,44.40
2019-01-21T14:13:12.021Z,44.40
2019-01-21T14:15:52.444Z,43.70
2019-01-21T14:18:29.800Z,43.30
2019-01-21T14:21:41.851Z,44.80
2019-01-21T14:24:35.991Z,43.70
2019-01-21T14:27:19.717Z,42.10
2019-01-21T14:30:04.846Z,41.40
2019-01-21T14:32:52.707Z,40.70
2019-01-21T14:35:35.438Z,40.70
2019-01-21T14:38:38.948Z,41.60
2019-01-21T14:41:21.847Z,42.30
2019-01-21T14:44:07.902Z,45.20
2019-01-21T14:46:42.843Z,47.50
2019-01-21T14:49:43.195Z,48.80
2019-01-21T14:52:28.753Z,48.40
2019-01-21T14:55:20.008Z,48.90
2019-01-21T14:58:02.760Z,49.50
2019-01-21T15:00:46.522Z,50.00
2019-01-21T15:03:39.520Z,50.30
2019-01-21T15:06:14.236Z,50.80
2019-01-21T15:08:57.076Z,51.20
2019-01-21T15:11:44.727Z,51.60
2019-01-21T15:14:19.394Z,51.80
2019-01-21T15:17:23.163Z,51.90
2019-01-21T15:19:51.089Z,51.40
2019-01-21T15:22:41.899Z,51.50
2019-01-21T15:25:36.879Z,51.80
2019-01-21T15:28:30.913Z,51.90
2019-01-21T15:31:25.663Z,51.80
2019-01-21T15:34:23.032Z,52.10
2019-01-21T15:37:11.343Z,52.50
2019-01-21T15:39:49.182Z,52.80
2019-01-21T15:42:23.954Z,53.10
2019-01-21T15:45:09.282Z,53.60
2019-01-21T15:47:56.970Z,54.10
2019-01-21T15:50:29.072Z,54.30
2019-01-21T15:53:29.421Z,54.80
2019-01-21T15:56:11.003Z,55.20
2019-01-21T15:58:48.313Z,55.40
2019-01-21T16:01:38.414Z,55.70
2019-01-21T16:04:13.420Z,56.00
2019-01-21T16:06:57.892Z,56.10
2019-01-21T16:09:34.404Z,56.40
2019-01-21T16:12:24.346Z,56.70
2019-01-21T16:15:12.424Z,56.90
2019-01-21T16:18:04.251Z,57.10
2019-01-21T16:20:37.461Z,57.40
2019-01-21T16:23:39.676Z,57.60
2019-01-21T16:26:08.779Z,57.60
2019-01-21T16:28:45.043Z,57.50
2019-01-21T16:31:30.007Z,57.60
2019-01-21T16:34:17.896Z,57.50
2019-01-21T16:37:05.590Z,58.00
2019-01-21T16:39:58.468Z,58.10
2019-01-21T16:42:26.528Z,59.30
2019-01-21T16:44:56.936Z,58.70
2019-01-21T16:47:26.704Z,58.30
2019-01-21T16:50:06.223Z,58.80
2019-01-21T16:52:26.563Z,59.30
2019-01-21T16:54:57.929Z,58.90
2019-01-21T16:57:31.093Z,58.70
2019-01-21T17:00:00.958Z,58.40
2019-01-21T17:02:34.821Z,58.60
2019-01-21T17:05:06.000Z,58.10
2019-01-21T17:07:38.791Z,58.30
2019-01-21T17:10:12.313Z,58.40
2019-01-21T17:12:42.729Z,58.20
2019-01-21T17:15:13.400Z,58.20
2019-01-21T17:17:42.438Z,58.30
2019-01-21T17:20:17.454Z,58.20
2019-01-21T17:22:46.422Z,58.20
2019-01-21T17:25:15.676Z,58.20
2019-01-21T17:27:47.868Z,58.50
2019-01-21T17:30:18.554Z,58.70
2019-01-21T17:32:47.358Z,59.00
2019-01-21T17:35:16.209Z,59.00
2019-01-21T17:37:45.665Z,58.90
2019-01-21T17:40:18.078Z,58.40
2019-01-21T17:42:46.976Z,57.90
2019-01-21T17:45:17.981Z,58.00
2019-01-21T17:47:48.027Z,57.80
2019-01-21T17:50:19.249Z,58.00
2019-01-21T17:52:48.927Z,57.80
2019-01-21T17:55:22.087Z,57.30
2019-01-21T17:57:53.729Z,57.40
2019-01-21T18:00:28.744Z,57.30
2019-01-21T18:03:08.890Z,57.30
2019-01-21T18:05:40.871Z,57.10
2019-01-21T18:08:16.039Z,57.20
2019-01-21T18:10:52.904Z,57.20
2019-01-21T18:13:33.930Z,57.40
2019-01-21T18:16:07.428Z,57.10
2019-01-21T18:18:40.801Z,57.30
2019-01-21T18:21:15.766Z,57.00
2019-01-21T18:23:46.647Z,56.80
2019-01-21T18:26:18.599Z,57.00
2019-01-21T18:28:50.992Z,57.00
2019-01-21T18:31:20.902Z,56.70
2019-01-21T18:34:00.004Z,56.90
2019-01-21T18:36:31.758Z,57.30
2019-01-21T18:39:04.143Z,57.20
2019-01-21T18:41:37.384Z,57.30
2019-01-21T18:44:17.438Z,57.40
2019-01-21T18:46:40.513Z,57.10
2019-01-21T18:49:22.831Z,57.10
2019-01-21T18:51:50.032Z,57.00
2019-01-21T18:54:21.788Z,57.10
2019-01-21T18:56:56.915Z,57.70
2019-01-21T18:59:25.825Z,56.60
2019-01-21T19:01:55.195Z,56.90
2019-01-21T19:04:24.353Z,56.70
2019-01-21T19:06:54.771Z,57.90
2019-01-21T19:09:23.909Z,56.60
2019-01-21T19:11:54.530Z,56.60
2019-01-21T19:14:24.249Z,56.30
2019-01-21T19:17:02.325Z,56.40
2019-01-21T19:19:30.072Z,56.60
2019-01-21T19:22:04.819Z,56.50
2019-01-21T19:24:33.776Z,56.60
2019-01-21T19:27:02.671Z,56.30
2019-01-21T19:29:31.732Z,56.70
2019-01-21T19:32:03.371Z,56.50
2019-01-21T19:34:35.487Z,56.60
2019-01-21T19:37:13.811Z,56.40
2019-01-21T19:39:42.457Z,56.60
2019-01-21T19:42:22.787Z,56.70
2019-01-21T19:44:52.130Z,56.60
2019-01-21T19:47:22.187Z,56.60
2019-01-21T19:49:53.583Z,56.80
2019-01-21T19:52:26.921Z,56.80
2019-01-21T19:54:55.753Z,57.20
2019-01-21T19:57:24.580Z,57.00
2019-01-21T19:59:53.445Z,57.00
2019-01-21T20:02:29.279Z,56.90
2019-01-21T20:04:58.077Z,56.90
2019-01-21T20:07:26.957Z,56.50
2019-01-21T20:09:56.827Z,56.50
2019-01-21T20:12:34.903Z,56.60
2019-01-21T20:15:03.917Z,56.50
2019-01-21T20:17:33.357Z,56.60
2019-01-21T20:20:02.280Z,56.60
2019-01-21T20:22:31.599Z,56.80
2019-01-21T20:25:00.729Z,56.80
2019-01-21T20:27:29.553Z,56.80
2019-01-21T20:30:01.453Z,57.10
2019-01-21T20:32:31.740Z,57.10
2019-01-21T20:35:00.527Z,57.20
2019-01-21T20:37:29.489Z,56.60
2019-01-21T20:39:59.849Z,56.90
2019-01-21T20:42:28.756Z,56.90
2019-01-21T20:44:57.879Z,56.10
2019-01-21T20:47:27.524Z,56.90
2019-01-21T20:49:57.731Z,56.60
2019-01-21T20:52:27.250Z,55.50
2019-01-21T20:54:57.933Z,57.00
2019-01-21T20:57:28.121Z,57.50
2019-01-21T20:59:58.607Z,57.40
2019-01-21T21:02:37.311Z,57.80
2019-01-21T21:05:06.864Z,57.60
2019-01-21T21:07:38.074Z,58.60
2019-01-21T21:10:13.862Z,57.30
2019-01-21T21:12:43.002Z,57.00
2019-01-21T21:15:17.798Z,56.90
2019-01-21T21:17:49.528Z,56.70
2019-01-21T21:20:21.389Z,56.90
2019-01-21T21:22:55.860Z,56.60
2019-01-21T21:25:31.463Z,57.20
2019-01-21T21:28:05.513Z,56.80
2019-01-21T21:30:40.812Z,56.70
2019-01-21T21:33:18.381Z,57.20
2019-01-21T21:35:53.401Z,57.30
2019-01-21T21:38:25.978Z,57.40
2019-01-21T21:40:58.023Z,57.10
2019-01-21T21:43:39.921Z,57.30
2019-01-21T21:46:14.776Z,57.70
2019-01-21T21:48:56.209Z,58.40
2019-01-21T21:51:27.180Z,57.90
2019-01-21T21:56:47.233Z,57.50
2019-01-21T21:59:16.433Z,57.10
2019-01-21T22:01:45.341Z,57.00
2019-01-21T22:04:14.220Z,56.70
2019-01-21T22:06:43.196Z,57.20
2019-01-21T22:09:19.623Z,57.30
2019-01-21T22:11:56.003Z,57.20
2019-01-21T22:14:28.505Z,57.00
2019-01-21T22:16:57.303Z,57.00
2019-01-21T22:19:26.390Z,57.00
2019-01-21T22:21:57.678Z,57.20
2019-01-21T22:24:26.805Z,57.40
2019-01-21T22:26:55.613Z,57.20
2019-01-21T22:29:24.377Z,57.40
2019-01-21T22:31:53.599Z,57.50
2019-01-21T22:34:22.955Z,57.60
2019-01-21T22:36:51.821Z,57.40
2019-01-21T22:39:20.646Z,57.30
2019-01-21T22:41:53.561Z,57.60
2019-01-21T22:44:22.446Z,57.90
2019-01-21T22:46:51.544Z,57.90
2019-01-21T22:49:20.276Z,58.60
2019-01-21T22:51:49.108Z,58.00
2019-01-21T22:54:18.017Z,57.90
2019-01-21T22:56:47.908Z,58.00
2019-01-21T22:59:18.445Z,58.00
2019-01-21T23:01:49.841Z,58.30
2019-01-21T23:04:18.665Z,58.40
2019-01-21T23:06:49.526Z,58.30
2019-01-21T23:09:19.440Z,58.40
2019-01-21T23:11:49.292Z,58.40
2019-01-21T23:14:18.354Z,58.40
2019-01-21T23:17:02.428Z,58.70
2019-01-21T23:19:34.089Z,58.90
2019-01-21T23:22:08.067Z,58.80
2019-01-21T23:24:40.922Z,58.80
2019-01-21T23:27:16.064Z,58.60
2019-01-21T23:29:51.805Z,59.80
2019-01-21T23:32:26.283Z,58.50
2019-01-21T23:34:59.635Z,58.40
2019-01-21T23:37:36.049Z,58.70
2019-01-21T23:40:21.587Z,58.40
2019-01-21T23:42:54.105Z,58.50
2019-01-21T23:45:24.662Z,58.60
2019-01-21T23:47:53.464Z,59.20
2019-01-21T23:50:26.243Z,58.70
2019-01-21T23:52:56.171Z,58.80
2019-01-21T23:55:25.538Z,58.70
2019-01-21T23:57:54.367Z,58.60
